Decoded Metar for KCLI (CLINTONVILLE in WI, USA) (IATA:CLI) | Meteo·Mobile Aviation Weather
aviador You're here:

KCLI Decoded Metar

CLINTONVILLE in WI, USA
Report Time2019-04-20 23:55:00
UTC Time2019-04-21 00:10:48
Flight Rules vfr VFR
Wind160° at 05 kt
W.Decomp.*RWY 14: 4.6 kt HW 1.9 kt RCW
RWY 22: 2.6 kt HW 4.2 kt LCW
RWY 09: 1.5 kt HW 4.8 kt RCW
Visibility9999 m
Phenomena:N/A
Clouds:N/A
Expected CloudBase > 8,400 ft AGL from Temp-Dew spread
CeilingNone
Temp17°C (ISA +4)
Dew Point-4°C (24% RH)
AAT12.7°C
QNH1008 hPa
Density Alt1,483 ft
Elevation820 ft
Report Wrong Elevation
Raw Report
KCLI 202355Z AUTO 16005KT 10SM CLR 17/M04 A2978 RMK AO2 T01661044
10179 20154=

Extra information for KCLI:More info

Metar Taf Metar & Taf Last 4 Metars F.Rules Stats Wind Profile Meteogram Temp Stats Airport Information Weather charts Add Link Nearby VenuesMetar ALERT Operation Metar Decoded Social comments

AIRNAV info for KCLI